Hare Bay, Canada
Current Conditions -  °F | °C
As of 1:00 PM on Saturday 22 Nov 2014 (Local Time) from CYQX Reporting Station
Scattered Clouds Scattered Clouds  
Wind Chill:   Ceiling: Unl
Heat Index: 25°   Visibility: 20mi
Dew Point: 10°   Wind: 25mph
Humidity: 54%   Direction: 280°W
Pressure: 29.57"   Gusts: 38mph
Location:  48.85°N, 54.01°W
Report Text: CYQX 221600Z 28022G33KT 20SM SCT038 M04/M12 A2957 RMK SC3 SLP020
Loading
Personal Weather Stations






























Interactive Weather Map New forecast layout! Learn more

10-Day Weather Forecast

Advertisements
Track Severe Weather on mobile